Los Angeles, California
Traffic Map
Current Weather Conditions
Los Angeles, California
Clear Haze
Clear
80°
Feels Like: 82°
Wind Chill: 80° Ceiling: Unl
Heat Index: 82° Visibility: 5mi
Dew Point: 66° Wind: 3mph
Humidity: 62% Direction: 270° (W)
Pressure: 29.95in Gusts: 0mph
Raw Report DataKCQT 281647Z AUTO 27003KT 5SM HZ CLR 27/19 A2995 RMK AO2 SLP139 T02670189
Traffic Incident Summary
Active as of:
Severity:
Category:
InformationThere was an issue retrieving the traffic information for this location. Please try a different location or try again shortly.
Advertisements
Track Severe Weather on mobile